Time;durP1;ratioP1;P1;durP2;ratioP2;P2;SDS_P1;SDS_P2;PMS_P1;PMS_P2;Temp;Humidity;BMP_temperature;BMP_pressure;BME280_temperature;BME280_humidity;BME280_pressure;Samples;Min_cycle;Max_cycle;Signal;HPM_P1;HPM_P2
2021/09/19 00:01:53;;;;;;;16.95;15.45;;;12.10;99.90;;;12.86;90.56;97743.53;5154688;28;20592;-80
2021/09/19 00:04:26;;;;;;;16.00;14.55;;;12.10;99.90;;;12.84;90.58;97745.16;5147597;28;20215;-79
2021/09/19 00:06:59;;;;;;;15.95;14.55;;;12.10;99.90;;;12.81;90.33;97751.03;5153481;28;20224;-79
2021/09/19 00:09:34;;;;;;;15.70;14.30;;;12.10;99.90;;;12.73;90.17;97743.78;5150007;28;20211;-80
2021/09/19 00:12:08;;;;;;;16.20;14.80;;;11.90;99.90;;;12.72;90.03;97744.59;5154705;28;20282;-80
2021/09/19 00:14:41;;;;;;;15.90;14.60;;;11.90;99.90;;;12.70;89.36;97741.06;5154945;28;20224;-79
2021/09/19 00:17:17;;;;;;;16.00;14.70;;;11.90;99.90;;;12.68;89.05;97735.00;5143091;28;20307;-80
2021/09/19 00:19:50;;;;;;;15.27;13.82;;;11.80;99.90;;;12.68;89.75;97738.44;5156216;28;20611;-79
2021/09/19 00:22:23;;;;;;;17.38;15.77;;;11.80;99.90;;;12.67;89.72;97738.38;5155216;28;20288;-81
2021/09/19 00:24:57;;;;;;;16.50;15.20;;;11.90;99.90;;;12.61;89.48;97732.13;5156578;28;20316;-80
2021/09/19 00:27:30;;;;;;;16.00;14.70;;;11.80;99.90;;;12.62;88.60;97728.78;5155184;28;20243;-81
2021/09/19 00:30:07;;;;;;;15.63;14.32;;;11.70;99.90;;;12.58;88.78;97729.44;5154485;28;20226;-80
2021/09/19 00:32:40;;;;;;;17.40;15.70;;;11.70;99.90;;;12.49;88.43;97731.56;5155480;28;20290;-79
2021/09/19 00:35:13;;;;;;;16.48;15.07;;;11.60;99.90;;;12.50;88.68;97732.44;5155845;28;20283;-80
2021/09/19 00:37:46;;;;;;;17.05;15.65;;;11.60;99.90;;;12.48;89.55;97728.94;5153354;28;20238;-80
2021/09/19 00:40:21;;;;;;;16.25;14.68;;;11.70;99.90;;;12.49;89.68;97723.00;5155001;28;20218;-80
2021/09/19 00:42:54;;;;;;;15.45;14.15;;;11.60;99.90;;;12.51;88.92;97729.97;5153746;28;20624;-80
2021/09/19 00:45:28;;;;;;;15.38;14.07;;;11.60;99.90;;;12.48;89.07;97716.13;5153756;28;20717;-79
2021/09/19 00:48:01;;;;;;;15.75;14.45;;;11.60;99.90;;;12.50;90.02;97712.81;5152087;28;20296;-80
2021/09/19 00:50:34;;;;;;;15.57;14.27;;;11.70;99.90;;;12.49;90.09;97711.06;5156058;28;20267;-80
2021/09/19 00:53:09;;;;;;;15.68;14.30;;;11.70;99.90;;;12.49;90.69;97711.06;5154286;28;20259;-80
2021/09/19 00:55:45;;;;;;;15.05;13.63;;;11.70;99.90;;;12.48;90.66;97704.19;5153458;28;20243;-80
2021/09/19 00:58:20;;;;;;;15.25;13.95;;;11.70;99.90;;;12.46;90.33;97700.66;5152692;28;20296;-79
2021/09/19 01:00:53;;;;;;;14.02;12.77;;;11.60;99.90;;;12.48;90.39;97701.63;5153564;28;20290;-80
2021/09/19 01:03:27;;;;;;;14.77;13.50;;;11.60;99.90;;;12.46;90.66;97695.53;5155105;28;20295;-80
2021/09/19 01:06:02;;;;;;;15.20;14.00;;;11.70;99.90;;;12.46;91.28;97695.53;5154240;28;20244;-80
2021/09/19 01:08:35;;;;;;;14.02;12.75;;;11.70;99.90;;;12.45;90.93;97692.88;5147520;28;20195;-80
2021/09/19 01:11:10;;;;;;;14.52;13.27;;;11.70;99.90;;;12.43;90.86;97690.28;5154595;28;20287;-80
2021/09/19 01:13:46;;;;;;;14.70;13.55;;;11.60;99.90;;;12.46;90.90;97695.53;5154999;28;20286;-80
2021/09/19 01:16:20;;;;;;;14.75;13.45;;;11.60;99.90;;;12.42;90.59;97690.19;5149028;28;20258;-81
2021/09/19 01:18:55;;;;;;;14.75;13.35;;;11.60;99.90;;;12.43;89.73;97697.09;5154702;28;20698;-81
2021/09/19 01:21:28;;;;;;;13.48;12.30;;;11.60;99.90;;;12.33;90.20;97694.09;5153658;28;20266;-81
2021/09/19 01:24:05;;;;;;;14.45;13.20;;;11.50;99.90;;;12.34;90.50;97687.28;5154554;28;20292;-80
2021/09/19 01:26:39;;;;;;;14.73;13.43;;;11.50;99.90;;;12.25;90.64;97689.41;5154233;28;20724;-80
2021/09/19 01:29:12;;;;;;;15.27;13.90;;;11.40;99.90;;;12.22;91.12;97690.13;5153250;28;20268;-80
2021/09/19 01:31:45;;;;;;;14.68;13.48;;;11.40;99.90;;;12.22;91.89;97679.88;5154217;28;20211;-80
2021/09/19 01:34:19;;;;;;;15.60;14.30;;;11.40;99.90;;;12.19;91.41;97677.19;5154435;28;20200;-80
2021/09/19 01:36:52;;;;;;;14.77;13.55;;;11.40;99.90;;;12.21;91.32;97683.25;5153763;28;20295;-80
2021/09/19 01:39:26;;;;;;;15.60;14.20;;;11.40;99.90;;;12.24;91.43;97683.38;5154142;28;20251;-80
2021/09/19 01:42:00;;;;;;;14.18;13.05;;;11.40;99.90;;;12.22;91.17;97678.97;5153261;28;20285;-80
2021/09/19 01:44:33;;;;;;;13.65;12.35;;;11.40;99.90;;;12.20;90.58;97670.38;5149300;28;20200;-80
2021/09/19 01:47:06;;;;;;;13.02;11.82;;;11.30;99.90;;;12.11;90.66;97666.56;5153408;28;20684;-80
2021/09/19 01:49:46;;;;;;;13.25;12.18;;;11.30;99.90;;;12.11;90.02;97661.44;5155235;28;20202;-80
2021/09/19 01:52:22;;;;;;;12.23;11.23;;;11.20;99.90;;;12.07;89.76;97653.53;5153475;28;20681;-80
2021/09/19 01:54:56;;;;;;;13.75;12.55;;;11.20;99.90;;;12.06;89.53;97657.78;5154635;28;20251;-80
2021/09/19 01:57:29;;;;;;;13.40;12.30;;;11.20;99.90;;;12.05;89.72;97661.16;5148371;28;20223;-80
2021/09/19 02:00:04;;;;;;;14.70;13.52;;;11.20;99.90;;;12.00;89.78;97657.47;5152026;28;20283;-80
2021/09/19 02:02:37;;;;;;;14.15;12.95;;;11.20;99.90;;;11.99;90.18;97652.28;5151100;28;20208;-79
2021/09/19 02:05:12;;;;;;;13.20;12.02;;;11.20;99.90;;;11.97;89.77;97651.34;5145449;28;20227;-79
2021/09/19 02:07:45;;;;;;;14.23;13.02;;;11.10;99.90;;;11.93;88.67;97640.03;5152568;28;20283;-80
2021/09/19 02:10:19;;;;;;;13.63;12.35;;;11.00;99.90;;;11.94;89.54;97634.13;5154108;28;20205;-80
2021/09/19 02:12:52;;;;;;;13.95;12.77;;;11.10;99.90;;;11.88;89.63;97638.97;5154069;28;20277;-80
2021/09/19 02:15:25;;;;;;;14.50;13.23;;;11.10;99.90;;;11.84;90.38;97627.66;5153763;28;20306;-80
2021/09/19 02:17:58;;;;;;;14.02;12.73;;;11.00;99.90;;;11.85;90.79;97631.09;5151520;28;20250;-80
2021/09/19 02:20:32;;;;;;;14.43;13.23;;;11.10;99.90;;;11.86;90.71;97630.31;5153932;28;20710;-80
2021/09/19 02:23:05;;;;;;;14.20;13.00;;;11.10;99.90;;;11.84;90.69;97626.78;5153578;28;20238;-80
2021/09/19 02:25:39;;;;;;;14.13;12.93;;;11.10;99.90;;;11.89;90.91;97628.78;5149588;28;20223;-80
2021/09/19 02:28:13;;;;;;;14.10;12.90;;;11.10;99.90;;;11.88;90.94;97621.03;5153195;28;20203;-80
2021/09/19 02:30:47;;;;;;;14.23;13.02;;;11.10;99.90;;;11.88;90.61;97624.47;5150891;28;20212;-79
2021/09/19 02:33:21;;;;;;;14.55;13.38;;;11.10;99.90;;;11.88;91.64;97623.59;5152141;28;20208;-79
2021/09/19 02:35:54;;;;;;;14.35;13.10;;;11.10;99.90;;;11.89;91.17;97617.66;5151707;28;20255;-80
2021/09/19 02:38:27;;;;;;;13.88;12.70;;;11.10;99.90;;;11.88;90.86;97618.47;5153002;28;20314;-80
2021/09/19 02:41:01;;;;;;;14.02;12.88;;;11.10;99.90;;;11.92;90.82;97615.25;5152686;28;20208;-80
2021/09/19 02:43:35;;;;;;;13.68;12.55;;;11.10;99.90;;;11.89;90.63;97612.53;5151327;28;20659;-80
2021/09/19 02:46:08;;;;;;;13.32;12.15;;;11.10;99.90;;;11.81;90.94;97609.56;5152539;28;20283;-80
2021/09/19 02:48:41;;;;;;;13.70;12.45;;;11.00;99.90;;;11.71;90.91;97603.16;5150258;28;20206;-80
2021/09/19 02:51:14;;;;;;;13.45;12.30;;;10.90;99.90;;;11.65;92.03;97597.72;5148699;28;20739;-79
2021/09/19 02:53:47;;;;;;;12.63;11.63;;;10.90;99.90;;;11.62;90.98;97597.59;5148941;28;20232;-80
2021/09/19 02:56:22;;;;;;;13.88;12.57;;;10.80;99.90;;;11.59;90.74;97597.44;5151069;28;20254;-79
2021/09/19 02:58:55;;;;;;;12.38;11.38;;;10.80;99.90;;;11.61;90.28;97597.50;5152750;28;20310;-80
2021/09/19 03:01:28;;;;;;;11.88;10.88;;;10.80;99.90;;;11.58;90.28;97605.91;5151281;28;20239;-80
2021/09/19 03:04:01;;;;;;;13.05;11.93;;;10.70;99.90;;;11.52;90.05;97594.50;5152669;28;20208;-80
2021/09/19 03:06:34;;;;;;;13.65;12.35;;;10.70;99.90;;;11.52;90.07;97590.25;5153987;28;20251;-81
2021/09/19 03:09:07;;;;;;;12.50;11.45;;;10.70;99.90;;;11.49;89.81;97595.22;5149220;28;20267;-80
2021/09/19 03:11:42;;;;;;;13.70;12.50;;;10.70;99.90;;;11.44;91.39;97591.56;5152466;28;20238;-82
2021/09/19 03:14:15;;;;;;;14.18;12.75;;;10.80;99.90;;;11.44;91.27;97591.56;5152788;28;20262;-81
2021/09/19 03:16:48;;;;;;;12.73;11.63;;;10.80;99.90;;;11.48;90.78;97589.22;5152389;28;20267;-81
2021/09/19 03:19:21;;;;;;;13.23;12.02;;;10.70;99.90;;;11.45;89.86;97577.97;5154256;28;20287;-81
2021/09/19 03:21:54;;;;;;;13.02;11.93;;;10.60;99.90;;;11.40;90.67;97580.28;5143663;28;20655;-81
2021/09/19 03:24:27;;;;;;;11.95;10.95;;;10.60;99.90;;;11.36;90.17;97577.50;5153750;28;20231;-81
2021/09/19 03:27:02;;;;;;;11.48;10.57;;;10.60;99.90;;;11.37;89.24;97581.84;5151386;28;20232;-79
2021/09/19 03:29:35;;;;;;;11.70;10.80;;;10.50;99.90;;;11.37;89.29;97577.59;5150458;28;20889;-80
2021/09/19 03:32:09;;;;;;;11.23;10.13;;;10.50;99.90;;;11.33;89.07;97572.22;5152128;28;20263;-80
2021/09/19 03:34:42;;;;;;;12.77;11.60;;;10.50;99.90;;;11.29;89.28;97586.56;5153029;28;20236;-81
2021/09/19 03:37:15;;;;;;;11.75;10.75;;;10.50;99.90;;;11.25;89.41;97582.97;5151658;28;20260;-82
2021/09/19 03:39:48;;;;;;;11.55;10.65;;;10.40;99.90;;;11.23;89.64;97582.00;5146968;28;20774;-80
2021/09/19 03:42:23;;;;;;;12.02;11.05;;;10.40;99.90;;;11.18;89.97;97574.91;5149679;28;20196;-80
2021/09/19 03:44:56;;;;;;;11.77;10.77;;;10.40;99.90;;;11.17;89.39;97568.94;5147697;28;20254;-81
2021/09/19 03:47:29;;;;;;;12.43;11.32;;;10.40;99.90;;;11.20;89.33;97575.88;5155925;28;20268;-81
2021/09/19 03:50:02;;;;;;;10.80;9.90;;;10.40;99.90;;;11.15;90.94;97577.31;5157250;28;20682;-81
2021/09/19 03:52:35;;;;;;;11.85;10.85;;;10.40;99.90;;;11.10;89.51;97583.88;5150786;28;20295;-80
2021/09/19 03:55:10;;;;;;;11.52;10.52;;;10.30;99.90;;;11.06;89.49;97575.19;5157199;28;20291;-80
2021/09/19 03:57:44;;;;;;;12.35;11.25;;;10.30;99.90;;;11.06;89.09;97577.75;5155128;28;20247;-80
2021/09/19 04:00:19;;;;;;;12.07;11.18;;;10.30;99.90;;;10.99;89.50;97575.69;5156113;28;20290;-80
2021/09/19 04:02:52;;;;;;;12.88;11.77;;;10.30;99.90;;;11.02;89.60;97575.84;5155834;28;20238;-80
2021/09/19 04:05:25;;;;;;;12.80;11.60;;;10.20;99.90;;;11.03;89.99;97578.47;5156076;28;20278;-80
2021/09/19 04:07:58;;;;;;;13.27;11.95;;;10.20;99.90;;;11.01;89.91;97574.06;5151043;28;20286;-81
2021/09/19 04:10:31;;;;;;;11.85;10.75;;;10.20;99.90;;;11.02;89.94;97575.84;5154612;28;20292;-80
2021/09/19 04:13:06;;;;;;;11.88;10.88;;;10.20;99.90;;;11.01;90.04;97585.16;5155044;28;20267;-80
2021/09/19 04:15:39;;;;;;;12.02;11.02;;;10.20;99.90;;;10.95;91.03;97583.97;5156082;28;20243;-81
2021/09/19 04:18:14;;;;;;;12.82;11.68;;;10.20;99.90;;;10.97;91.09;97582.41;5158241;28;20211;-81
2021/09/19 04:20:47;;;;;;;11.98;10.98;;;10.20;99.90;;;10.98;91.99;97589.25;5161172;28;20250;-80
2021/09/19 04:23:22;;;;;;;11.90;10.90;;;10.20;99.90;;;10.98;91.42;97594.38;5159071;28;20226;-80
2021/09/19 04:25:55;;;;;;;12.68;11.48;;;10.20;99.90;;;11.02;91.71;97591.19;5159748;28;20732;-80
2021/09/19 04:28:29;;;;;;;12.50;11.40;;;10.30;99.90;;;11.00;91.63;97583.41;5153776;28;20220;-81
2021/09/19 04:31:02;;;;;;;12.80;11.60;;;10.30;99.90;;;11.01;91.47;97591.97;5157797;28;20278;-81
2021/09/19 04:33:35;;;;;;;11.77;10.68;;;10.20;99.90;;;11.00;90.90;97590.22;5155128;28;20263;-80
2021/09/19 04:36:09;;;;;;;12.85;11.65;;;10.20;99.90;;;10.97;91.00;97584.94;5154862;28;20262;-80
2021/09/19 04:38:42;;;;;;;12.15;11.05;;;10.20;99.90;;;10.96;91.10;97591.75;5152272;28;20221;-83
2021/09/19 04:41:15;;;;;;;11.32;10.30;;;10.20;99.90;;;10.93;90.37;97585.56;5155830;28;20244;-82
2021/09/19 04:43:49;;;;;;;11.27;10.30;;;10.10;99.90;;;10.93;90.19;97590.69;5154113;28;20570;-82
2021/09/19 04:46:22;;;;;;;10.75;9.85;;;10.10;99.90;;;10.91;90.78;97598.31;5155920;28;20650;-81
2021/09/19 04:48:56;;;;;;;11.25;10.32;;;10.10;99.90;;;10.90;90.70;97593.09;5155455;28;20231;-82
2021/09/19 04:51:29;;;;;;;10.98;10.07;;;10.10;99.90;;;10.87;90.07;97600.59;5156149;28;20655;-82
2021/09/19 04:54:02;;;;;;;11.25;10.35;;;10.00;99.90;;;10.89;89.72;97602.44;5149304;28;20271;-82
2021/09/19 04:56:36;;;;;;;11.30;10.30;;;10.10;99.90;;;10.83;90.56;97604.69;5152909;28;20254;-82
2021/09/19 04:59:11;;;;;;;11.25;10.27;;;10.00;99.90;;;10.83;89.69;97613.22;5152910;28;20204;-85
2021/09/19 05:01:44;;;;;;;10.90;10.00;;;10.00;99.90;;;10.77;89.87;97615.47;5150189;28;20270;-81
2021/09/19 05:04:18;;;;;;;11.02;10.13;;;10.00;99.90;;;10.74;91.31;97614.44;5149775;28;20687;-82
2021/09/19 05:06:51;;;;;;;9.95;9.05;;;10.00;99.90;;;10.76;89.93;97621.41;5149114;28;20214;-82
2021/09/19 05:09:24;;;;;;;10.32;9.43;;;10.00;99.90;;;10.78;89.68;97622.34;5154705;28;20726;-82
2021/09/19 05:11:57;;;;;;;10.80;9.90;;;10.00;99.90;;;10.79;89.78;97625.81;5152567;28;20238;-82
2021/09/19 05:14:32;;;;;;;10.57;9.57;;;10.00;99.90;;;10.77;89.65;97625.69;5153096;28;20234;-84
2021/09/19 05:17:05;;;;;;;10.45;9.55;;;10.00;99.90;;;10.77;89.41;97628.25;5152217;28;20231;-82
2021/09/19 05:19:38;;;;;;;10.02;9.20;;;9.80;99.90;;;10.74;89.87;97628.09;5151095;28;20259;-82
2021/09/19 05:22:11;;;;;;;10.85;10.00;;;9.90;99.90;;;10.77;90.33;97629.94;5146189;28;20234;-83
2021/09/19 05:24:44;;;;;;;11.00;10.00;;;9.90;99.90;;;10.76;89.49;97629.06;5150721;28;20318;-83
2021/09/19 05:27:17;;;;;;;10.82;9.88;;;9.90;99.90;;;10.77;89.83;97635.94;5146737;28;20630;-81
2021/09/19 05:29:51;;;;;;;10.60;9.75;;;9.90;99.90;;;10.73;89.70;97628.91;5150290;28;20294;-82
2021/09/19 05:32:24;;;;;;;9.88;9.07;;;9.90;99.90;;;10.81;89.85;97632.72;5146725;28;20640;-81
2021/09/19 05:34:57;;;;;;;10.70;9.80;;;9.90;99.90;;;10.80;89.93;97640.31;5148063;28;20296;-81
2021/09/19 05:37:30;;;;;;;11.13;10.13;;;9.90;99.90;;;10.76;90.91;97638.41;5152568;28;20294;-82
2021/09/19 05:40:05;;;;;;;11.43;10.43;;;9.90;99.90;;;10.80;90.59;97643.75;5152713;28;20228;-82
2021/09/19 05:42:38;;;;;;;11.40;10.40;;;10.00;99.90;;;10.81;89.96;97639.50;5153343;28;20202;-83
2021/09/19 05:45:14;;;;;;;10.60;9.70;;;10.00;99.90;;;10.95;88.78;97642.78;5152028;28;20287;-81
2021/09/19 05:47:47;;;;;;;11.32;10.43;;;10.00;99.90;;;11.08;89.33;97642.66;5146843;28;20307;-80
2021/09/19 05:50:20;;;;;;;11.30;10.10;;;10.10;99.90;;;11.17;89.09;97639.69;5151495;28;20223;-81
2021/09/19 05:52:53;;;;;;;12.63;11.43;;;10.30;99.90;;;11.31;89.86;97646.38;5150972;28;20567;-80
2021/09/19 05:55:26;;;;;;;11.38;10.43;;;10.50;99.90;;;11.37;89.23;97640.69;5151255;28;20311;-80
2021/09/19 05:58:00;;;;;;;11.45;10.45;;;10.50;99.90;;;11.40;88.43;97640.84;5151264;28;20228;-81
2021/09/19 06:00:34;;;;;;;10.85;9.93;;;10.50;99.90;;;11.48;88.08;97642.97;5152737;28;20275;-83
2021/09/19 06:03:07;;;;;;;11.05;10.10;;;10.70;99.90;;;11.62;87.72;97637.66;5151546;28;20212;-81
2021/09/19 06:05:40;;;;;;;11.35;10.45;;;10.80;99.90;;;11.66;87.27;97634.44;5144234;28;20306;-82
2021/09/19 06:08:13;;;;;;;10.95;9.95;;;10.80;99.90;;;11.76;86.92;97628.97;5152100;28;20268;-82
2021/09/19 06:10:46;;;;;;;12.43;11.43;;;10.80;99.90;;;12.02;87.10;97635.38;5150958;28;20238;-83
2021/09/19 06:13:20;;;;;;;11.23;10.25;;;11.00;99.90;;;12.45;85.38;97627.13;5156818;28;20231;-82
2021/09/19 06:15:54;;;;;;;10.48;9.57;;;11.30;99.90;;;12.91;84.37;97618.06;5150634;28;20223;-84
2021/09/19 06:18:28;;;;;;;9.65;8.95;;;11.60;99.90;;;13.18;82.47;97613.25;5145897;28;20208;-83
2021/09/19 06:21:06;;;;;;;8.93;8.25;;;11.90;99.90;;;13.51;81.23;97609.56;5154891;28;20231;-82
2021/09/19 06:23:39;;;;;;;9.30;8.60;;;12.20;99.90;;;13.75;80.11;97617.38;5153396;28;20286;-82
2021/09/19 06:26:12;;;;;;;8.80;8.10;;;12.40;99.90;;;14.18;77.68;97613.09;5152288;28;20624;-84
2021/09/19 06:28:45;;;;;;;9.15;8.45;;;12.80;99.90;;;14.43;75.83;97610.63;5150538;28;20206;-83
2021/09/19 06:31:20;;;;;;;8.32;7.53;;;13.10;99.90;;;14.78;74.08;97602.50;5152802;28;20231;-82
2021/09/19 06:33:53;;;;;;;8.20;7.50;;;13.30;99.90;;;15.16;72.90;97606.44;5154223;28;20212;-82
2021/09/19 06:36:26;;;;;;;8.02;7.43;;;13.70;99.90;;;15.36;72.57;97604.53;5149587;28;20231;-83
2021/09/19 06:38:59;;;;;;;7.95;7.35;;;13.90;99.90;;;15.80;69.80;97601.75;5150256;28;20272;-82
2021/09/19 06:41:32;;;;;;;7.78;7.18;;;14.10;99.90;;;16.05;69.79;97608.53;5151790;28;20251;-84
2021/09/19 06:44:06;;;;;;;7.43;6.93;;;14.40;99.90;;;16.20;68.37;97606.47;5150704;28;20267;-81
2021/09/19 06:46:40;;;;;;;7.88;7.28;;;14.40;99.90;;;16.32;68.61;97600.78;5147861;28;20248;-84
2021/09/19 06:49:14;;;;;;;7.85;7.25;;;14.40;99.90;;;16.87;66.98;97597.25;5146073;28;20613;-82
2021/09/19 06:51:47;;;;;;;7.53;6.82;;;14.70;99.90;;;17.11;66.05;97597.97;5149579;28;20294;-81
2021/09/19 06:54:20;;;;;;;6.50;6.00;;;15.00;99.90;;;17.48;64.93;97593.75;5149716;28;20246;-82
2021/09/19 06:56:54;;;;;;;7.20;6.68;;;15.20;99.90;;;17.93;63.08;97587.97;5145437;28;20238;-81
2021/09/19 06:59:27;;;;;;;6.47;6.05;;;15.50;99.90;;;17.96;62.36;97580.28;5144384;28;20283;-83
2021/09/19 07:02:01;;;;;;;6.70;6.20;;;15.60;99.90;;;18.02;62.30;97587.31;5143603;28;20278;-83
2021/09/19 07:04:34;;;;;;;6.55;6.05;;;16.00;99.90;;;18.00;63.13;97587.31;5147213;28;20717;-83
2021/09/19 07:07:07;;;;;;;6.85;6.30;;;16.20;99.90;;;17.78;63.81;97587.63;5149462;28;20823;-82
2021/09/19 07:09:41;;;;;;;6.30;5.82;;;16.20;99.90;;;17.77;63.74;97596.19;5150153;28;20400;-83
2021/09/19 07:12:14;;;;;;;6.45;5.95;;;16.40;99.90;;;17.92;63.73;97601.75;5149581;28;20230;-83
2021/09/19 07:14:47;;;;;;;6.75;6.15;;;16.60;99.90;;;17.86;63.96;97595.56;5148378;28;20262;-82
2021/09/19 07:17:22;;;;;;;6.43;5.93;;;16.40;99.90;;;17.96;63.01;97603.56;5149888;28;20211;-83
2021/09/19 07:19:55;;;;;;;6.88;6.10;;;16.60;99.90;;;17.77;64.00;97610.00;5151367;28;20238;-83
2021/09/19 07:22:28;;;;;;;5.93;5.53;;;16.50;99.90;;;18.02;63.46;97608.88;5153724;28;20315;-82
2021/09/19 07:25:01;;;;;;;5.80;5.40;;;16.70;99.90;;;18.52;61.92;97594.50;5150299;28;20729;-82
2021/09/19 07:27:35;;;;;;;6.00;5.60;;;17.20;99.90;;;18.50;62.18;97596.16;5152896;28;20643;-82
2021/09/19 07:30:10;;;;;;;5.70;5.30;;;17.40;99.90;;;18.70;61.59;97589.69;5149434;28;20295;-82
2021/09/19 07:32:46;;;;;;;5.68;5.28;;;17.60;99.90;;;18.71;61.70;97588.84;5149965;28;20196;-82
2021/09/19 07:35:19;;;;;;;5.78;5.38;;;17.70;99.90;;;18.78;60.58;97588.16;5148469;28;20304;-83
2021/09/19 07:37:53;;;;;;;5.93;5.43;;;17.80;99.90;;;18.68;61.35;97593.94;5152568;28;20239;-82
2021/09/19 07:40:26;;;;;;;5.90;5.50;;;17.70;99.90;;;18.80;61.25;97588.19;5147127;28;20670;-82
2021/09/19 07:43:00;;;;;;;5.63;5.22;;;17.80;99.90;;;19.10;59.98;97590.50;5149606;28;20231;-82
2021/09/19 07:45:34;;;;;;;5.72;5.32;;;18.00;99.90;;;18.88;60.19;97589.22;5152811;28;20303;-82
2021/09/19 07:48:12;;;;;;;5.05;4.72;;;18.00;99.90;;;18.85;60.85;97587.44;5152319;28;20204;-82
2021/09/19 07:50:46;;;;;;;5.47;5.07;;;18.00;99.90;;;19.18;61.09;97590.66;5148769;28;20227;-82
2021/09/19 07:53:20;;;;;;;5.13;4.82;;;18.30;99.90;;;19.40;60.44;97595.41;5152112;28;20291;-82
2021/09/19 07:55:55;;;;;;;5.65;5.15;;;18.30;99.90;;;19.69;59.39;97593.34;5153351;28;20323;-83
2021/09/19 07:58:28;;;;;;;5.05;4.55;;;18.60;99.90;;;19.88;59.12;97604.00;5147440;28;20196;-83
2021/09/19 08:01:02;;;;;;;5.43;4.85;;;18.80;99.90;;;19.97;58.43;97599.84;5147476;28;20279;-83
2021/09/19 08:03:37;;;;;;;5.20;4.80;;;18.80;99.90;;;20.03;58.19;97604.28;5151655;28;20222;-83
2021/09/19 08:06:11;;;;;;;4.55;4.25;;;18.90;99.90;;;20.18;57.92;97596.72;5146639;28;20256;-83
2021/09/19 08:08:44;;;;;;;4.90;4.60;;;19.10;99.90;;;20.25;57.91;97601.13;5151018;28;20302;-83
2021/09/19 08:11:18;;;;;;;4.93;4.53;;;19.50;99.90;;;20.34;57.52;97604.72;5149090;28;20230;-83
2021/09/19 08:13:56;;;;;;;4.05;3.85;;;19.40;99.90;;;20.49;57.25;97604.94;5153275;28;20715;-83
2021/09/19 08:16:29;;;;;;;4.35;4.05;;;19.40;99.90;;;20.62;57.13;97596.47;5152441;28;20228;-84
2021/09/19 08:19:04;;;;;;;4.28;3.97;;;19.60;99.90;;;20.72;57.29;97594.00;5153581;28;20219;-83
2021/09/19 08:21:38;;;;;;;4.30;4.00;;;19.80;99.90;;;20.98;56.80;97594.34;5153498;28;20231;-85
2021/09/19 08:24:12;;;;;;;4.30;4.00;;;20.00;99.90;;;21.21;56.23;97605.00;5153462;28;20199;-84
2021/09/19 08:26:46;;;;;;;3.83;3.60;;;20.20;99.90;;;21.33;55.39;97610.31;5153960;28;20642;-84
2021/09/19 08:29:21;;;;;;;3.38;3.17;;;20.40;99.90;;;21.38;54.45;97606.06;5154141;28;20199;-83
2021/09/19 08:31:55;;;;;;;4.10;3.80;;;20.40;99.90;;;21.43;54.14;97611.31;5152260;28;20199;-83
2021/09/19 08:34:30;;;;;;;3.88;3.58;;;20.50;99.90;;;21.52;54.36;97608.81;5154272;28;20655;-84
2021/09/19 08:37:04;;;;;;;3.75;3.55;;;20.60;99.90;;;21.55;54.68;97617.50;5153433;28;20246;-84
2021/09/19 08:39:38;;;;;;;4.03;3.70;;;20.70;99.90;;;21.82;53.81;97608.22;5154090;28;20263;-83
2021/09/19 08:42:11;;;;;;;3.90;3.60;;;20.80;99.90;;;21.80;54.12;97607.31;5147358;28;20212;-83
2021/09/19 08:44:44;;;;;;;4.03;3.60;;;20.80;99.90;;;21.74;54.48;97602.06;5148650;28;20219;-82
2021/09/19 08:47:17;;;;;;;4.70;4.30;;;20.80;99.90;;;21.61;55.11;97608.03;5143265;28;20234;-83
2021/09/19 08:49:52;;;;;;;3.55;3.35;;;20.70;99.90;;;21.54;54.48;97597.53;5149416;28;20228;-82
2021/09/19 08:52:25;;;;;;;4.18;3.88;;;20.50;99.90;;;21.68;53.75;97607.22;5152507;28;20205;-83
2021/09/19 08:54:58;;;;;;;3.60;3.40;;;20.60;99.90;;;21.77;54.16;97604.69;5147630;28;20570;-84
2021/09/19 08:57:31;;;;;;;3.45;3.25;;;20.80;99.90;;;21.68;55.00;97599.41;5147786;28;20204;-84
2021/09/19 09:00:10;;;;;;;3.70;3.45;;;20.80;99.90;;;21.59;54.73;97603.66;5148151;28;20627;-84
2021/09/19 09:02:50;;;;;;;3.40;3.20;;;20.70;99.90;;;21.47;55.35;97602.69;5151018;28;20651;-83
2021/09/19 09:05:28;;;;;;;3.80;3.60;;;20.60;99.90;;;21.41;56.82;97607.84;5145043;28;20922;-84
2021/09/19 09:08:01;;;;;;;3.70;3.40;;;20.70;99.90;;;21.80;54.67;97610.81;5150091;28;20254;-85
2021/09/19 09:10:39;;;;;;;3.50;3.20;;;21.00;99.90;;;21.89;54.83;97610.03;5150065;28;20200;-85
2021/09/19 09:13:15;;;;;;;3.15;2.85;;;21.20;99.90;;;22.17;54.30;97607.59;5147597;28;20294;-83
2021/09/19 09:15:51;;;;;;;3.05;2.85;;;21.40;99.90;;;22.36;53.59;97609.50;5145438;28;20652;-84
2021/09/19 09:18:34;;;;;;;3.50;3.30;;;21.50;99.90;;;22.17;54.62;97616.31;5146516;28;20199;-83
2021/09/19 09:21:10;;;;;;;3.72;3.42;;;21.30;99.90;;;22.04;55.02;97610.13;5144602;28;20207;-84
2021/09/19 09:23:46;;;;;;;3.50;3.30;;;21.30;99.90;;;22.21;54.35;97617.22;5148793;28;20223;-83
2021/09/19 09:26:23;;;;;;;3.30;3.10;;;21.40;99.90;;;22.34;53.65;97613.81;5145771;28;20232;-85
2021/09/19 09:29:00;;;;;;;3.42;3.22;;;21.50;99.90;;;22.47;53.05;97615.66;5148097;28;20648;-83
2021/09/19 09:31:36;;;;;;;3.60;3.30;;;21.50;99.90;;;22.40;53.15;97613.88;5147048;28;20227;-82
2021/09/19 09:34:11;;;;;;;3.67;3.38;;;21.50;99.90;;;22.27;54.18;97618.13;5141662;28;20231;-85
2021/09/19 09:36:50;;;;;;;3.63;3.42;;;21.50;99.90;;;22.29;54.42;97612.06;5148806;28;20258;-83
2021/09/19 09:39:30;;;;;;;3.17;2.97;;;21.50;99.90;;;22.37;53.87;97606.03;5150200;28;20766;-82
2021/09/19 09:42:07;;;;;;;3.28;3.08;;;21.60;99.90;;;22.61;53.08;97618.34;5144169;28;20310;-82
2021/09/19 09:44:42;;;;;;;3.42;3.17;;;21.70;99.90;;;22.65;52.17;97616.63;5142176;28;20662;-83
2021/09/19 09:47:17;;;;;;;3.80;3.50;;;21.80;99.90;;;22.29;53.43;97612.94;5145435;28;20200;-83
2021/09/19 09:49:53;;;;;;;3.50;3.30;;;21.50;99.90;;;22.36;53.84;97616.47;5150984;28;20671;-83
2021/09/19 09:52:31;;;;;;;3.47;3.28;;;21.60;99.90;;;22.64;52.39;97614.91;5142862;28;20222;-82
2021/09/19 09:55:08;;;;;;;3.53;3.33;;;21.80;99.90;;;22.97;51.58;97621.16;5148997;28;20234;-81
2021/09/19 09:58:01;;;;;;;4.10;3.40;;;22.10;99.50;;;23.20;50.37;97629.06;5150509;28;20681;-84
2021/09/19 10:00:36;;;;;;;3.50;3.20;;;22.10;99.50;;;23.32;49.57;97613.44;5149827;28;20259;-82
2021/09/19 10:03:09;;;;;;;3.97;3.67;;;22.10;99.20;;;23.48;49.33;97624.78;5149178;28;20233;-82
2021/09/19 10:05:43;;;;;;;4.03;3.72;;;22.40;98.70;;;23.42;49.49;97617.81;5149654;28;20758;-82
2021/09/19 10:08:17;;;;;;;3.50;3.30;;;22.40;98.60;;;23.55;49.36;97618.69;5147078;28;20234;-82
2021/09/19 10:10:51;;;;;;;3.88;3.58;;;22.40;98.60;;;23.59;48.88;97617.84;5145879;28;20298;-82
2021/09/19 10:13:25;;;;;;;3.67;3.47;;;22.60;98.40;;;23.81;48.26;97622.28;5148030;28;20206;-81
2021/09/19 10:15:58;;;;;;;3.80;3.50;;;22.80;97.90;;;23.98;47.92;97616.16;5147245;28;20226;-82
2021/09/19 10:18:31;;;;;;;3.85;3.58;;;22.90;97.50;;;23.99;48.17;97607.47;5149794;28;20231;-83
2021/09/19 10:21:06;;;;;;;3.65;3.45;;;23.00;97.70;;;23.94;48.48;97609.22;5150227;28;20234;-83
2021/09/19 10:23:41;;;;;;;4.45;4.13;;;23.00;97.80;;;24.17;47.89;97602.22;5150673;28;20717;-82
2021/09/19 10:26:23;;;;;;;3.40;3.20;;;23.10;97.30;;;24.22;47.04;97595.25;5149792;28;20295;-83
2021/09/19 10:28:56;;;;;;;3.50;3.30;;;23.10;96.90;;;24.23;46.37;97601.34;5149543;28;20235;-83
2021/09/19 10:31:33;;;;;;;3.50;3.20;;;23.10;96.70;;;24.12;46.95;97603.09;5147789;28;20268;-82
2021/09/19 10:34:10;;;;;;;3.55;3.33;;;23.10;97.00;;;24.16;47.75;97592.66;5151404;28;20196;-82
2021/09/19 10:36:46;;;;;;;2.78;2.67;;;23.20;97.60;;;24.12;48.33;97588.28;5151589;28;20286;-82
2021/09/19 10:39:25;;;;;;;3.45;3.25;;;23.10;97.90;;;24.08;47.40;97589.19;5149468;28;20207;-83
2021/09/19 10:42:17;;;;;;;3.60;3.33;;;23.10;96.70;;;24.09;47.54;97580.47;5148572;28;20208;-81